sensor_id;sensor_type;location;lat;lon;timestamp;temperature;humidity
5647;DHT22;2845;48.626;9.362;2023-04-29T00:02:20;11.30;99.90
5647;DHT22;2845;48.626;9.362;2023-04-29T00:04:55;12.70;99.90
5647;DHT22;2845;48.626;9.362;2023-04-29T00:07:31;11.20;99.90
5647;DHT22;2845;48.626;9.362;2023-04-29T00:10:06;11.20;99.90
5647;DHT22;2845;48.626;9.362;2023-04-29T00:12:41;11.20;99.90
5647;DHT22;2845;48.626;9.362;2023-04-29T00:15:17;12.90;99.90
5647;DHT22;2845;48.626;9.362;2023-04-29T00:17:51;11.10;99.90
5647;DHT22;2845;48.626;9.362;2023-04-29T00:20:25;13.40;99.90
5647;DHT22;2845;48.626;9.362;2023-04-29T00:23:00;11.10;99.90
5647;DHT22;2845;48.626;9.362;2023-04-29T00:25:34;11.00;99.90
5647;DHT22;2845;48.626;9.362;2023-04-29T00:28:10;11.00;99.90
5647;DHT22;2845;48.626;9.362;2023-04-29T00:30:46;12.00;99.90
5647;DHT22;2845;48.626;9.362;2023-04-29T00:33:20;11.00;99.90
5647;DHT22;2845;48.626;9.362;2023-04-29T00:35:54;11.00;99.90
5647;DHT22;2845;48.626;9.362;2023-04-29T00:38:33;11.00;99.90
5647;DHT22;2845;48.626;9.362;2023-04-29T00:41:08;11.00;99.90
5647;DHT22;2845;48.626;9.362;2023-04-29T00:43:42;13.70;99.90
5647;DHT22;2845;48.626;9.362;2023-04-29T00:46:18;10.80;99.90
5647;DHT22;2845;48.626;9.362;2023-04-29T00:48:52;11.30;99.90
5647;DHT22;2845;48.626;9.362;2023-04-29T00:51:29;10.80;99.90
5647;DHT22;2845;48.626;9.362;2023-04-29T00:54:04;10.70;99.90
5647;DHT22;2845;48.626;9.362;2023-04-29T00:56:39;11.80;99.90
5647;DHT22;2845;48.626;9.362;2023-04-29T00:59:14;10.70;99.90
5647;DHT22;2845;48.626;9.362;2023-04-29T01:01:50;10.60;99.90
5647;DHT22;2845;48.626;9.362;2023-04-29T01:04:25;10.60;99.90
5647;DHT22;2845;48.626;9.362;2023-04-29T01:07:03;10.80;99.90
5647;DHT22;2845;48.626;9.362;2023-04-29T01:09:52;10.50;99.90
5647;DHT22;2845;48.626;9.362;2023-04-29T01:12:39;10.40;99.90
5647;DHT22;2845;48.626;9.362;2023-04-29T01:15:21;10.40;99.90
5647;DHT22;2845;48.626;9.362;2023-04-29T01:17:59;11.00;99.90
5647;DHT22;2845;48.626;9.362;2023-04-29T01:20:37;10.40;99.90
5647;DHT22;2845;48.626;9.362;2023-04-29T01:23:11;10.30;99.90
5647;DHT22;2845;48.626;9.362;2023-04-29T01:25:47;10.30;99.90
5647;DHT22;2845;48.626;9.362;2023-04-29T01:28:34;13.70;99.90
5647;DHT22;2845;48.626;9.362;2023-04-29T01:31:18;10.30;99.90
5647;DHT22;2845;48.626;9.362;2023-04-29T01:34:07;10.30;99.90
5647;DHT22;2845;48.626;9.362;2023-04-29T01:36:49;10.30;99.90
5647;DHT22;2845;48.626;9.362;2023-04-29T01:39:33;10.30;99.90
5647;DHT22;2845;48.626;9.362;2023-04-29T01:42:17;10.20;99.90
5647;DHT22;2845;48.626;9.362;2023-04-29T01:45:00;10.30;99.90
5647;DHT22;2845;48.626;9.362;2023-04-29T01:47:36;10.30;99.90
5647;DHT22;2845;48.626;9.362;2023-04-29T01:50:12;10.20;99.90
5647;DHT22;2845;48.626;9.362;2023-04-29T01:52:47;10.20;99.90
5647;DHT22;2845;48.626;9.362;2023-04-29T01:55:22;10.20;99.90
5647;DHT22;2845;48.626;9.362;2023-04-29T01:57:58;10.10;99.90
5647;DHT22;2845;48.626;9.362;2023-04-29T02:00:32;10.10;99.90
5647;DHT22;2845;48.626;9.362;2023-04-29T02:03:07;10.20;99.90
5647;DHT22;2845;48.626;9.362;2023-04-29T02:05:42;10.10;99.90
5647;DHT22;2845;48.626;9.362;2023-04-29T02:08:16;10.10;99.90
5647;DHT22;2845;48.626;9.362;2023-04-29T02:10:53;10.10;99.90
5647;DHT22;2845;48.626;9.362;2023-04-29T02:13:30;10.10;99.90
5647;DHT22;2845;48.626;9.362;2023-04-29T02:16:08;10.70;99.90
5647;DHT22;2845;48.626;9.362;2023-04-29T02:18:42;10.10;99.90
5647;DHT22;2845;48.626;9.362;2023-04-29T02:21:16;10.10;99.90
5647;DHT22;2845;48.626;9.362;2023-04-29T02:23:50;10.10;99.90
5647;DHT22;2845;48.626;9.362;2023-04-29T02:26:26;11.50;99.90
5647;DHT22;2845;48.626;9.362;2023-04-29T02:29:01;10.30;99.90
5647;DHT22;2845;48.626;9.362;2023-04-29T02:31:35;10.00;99.90
5647;DHT22;2845;48.626;9.362;2023-04-29T02:34:09;10.00;99.90
5647;DHT22;2845;48.626;9.362;2023-04-29T02:36:44;10.10;99.90
5647;DHT22;2845;48.626;9.362;2023-04-29T02:39:18;10.00;99.90
5647;DHT22;2845;48.626;9.362;2023-04-29T02:41:53;10.00;99.90
5647;DHT22;2845;48.626;9.362;2023-04-29T02:44:30;10.00;99.90
5647;DHT22;2845;48.626;9.362;2023-04-29T02:47:04;11.10;99.90
5647;DHT22;2845;48.626;9.362;2023-04-29T02:49:38;10.00;99.90
5647;DHT22;2845;48.626;9.362;2023-04-29T02:52:12;9.90;99.90
5647;DHT22;2845;48.626;9.362;2023-04-29T02:54:46;9.80;99.90
5647;DHT22;2845;48.626;9.362;2023-04-29T02:57:21;9.80;99.90
5647;DHT22;2845;48.626;9.362;2023-04-29T02:59:57;9.80;99.90
5647;DHT22;2845;48.626;9.362;2023-04-29T03:02:31;9.80;99.90
5647;DHT22;2845;48.626;9.362;2023-04-29T03:05:06;9.80;99.90
5647;DHT22;2845;48.626;9.362;2023-04-29T03:07:40;9.70;99.90
5647;DHT22;2845;48.626;9.362;2023-04-29T03:10:15;9.70;99.90
5647;DHT22;2845;48.626;9.362;2023-04-29T03:12:51;9.60;99.90
5647;DHT22;2845;48.626;9.362;2023-04-29T03:15:27;9.60;99.90
5647;DHT22;2845;48.626;9.362;2023-04-29T03:18:01;9.50;99.90
5647;DHT22;2845;48.626;9.362;2023-04-29T03:20:36;9.50;99.90
5647;DHT22;2845;48.626;9.362;2023-04-29T03:23:10;9.50;99.90
5647;DHT22;2845;48.626;9.362;2023-04-29T03:25:45;9.40;99.90
5647;DHT22;2845;48.626;9.362;2023-04-29T03:28:19;9.40;99.90
5647;DHT22;2845;48.626;9.362;2023-04-29T03:30:54;9.30;99.90
5647;DHT22;2845;48.626;9.362;2023-04-29T03:33:31;9.30;99.90
5647;DHT22;2845;48.626;9.362;2023-04-29T03:36:05;9.30;99.90
5647;DHT22;2845;48.626;9.362;2023-04-29T03:38:40;9.30;99.90
5647;DHT22;2845;48.626;9.362;2023-04-29T03:41:14;9.20;99.90
5647;DHT22;2845;48.626;9.362;2023-04-29T03:43:49;9.20;99.90
5647;DHT22;2845;48.626;9.362;2023-04-29T03:46:24;9.20;99.90
5647;DHT22;2845;48.626;9.362;2023-04-29T03:48:59;9.20;99.90
5647;DHT22;2845;48.626;9.362;2023-04-29T03:51:33;9.10;99.90
5647;DHT22;2845;48.626;9.362;2023-04-29T03:54:07;9.80;99.90
5647;DHT22;2845;48.626;9.362;2023-04-29T03:56:41;9.00;99.90
5647;DHT22;2845;48.626;9.362;2023-04-29T03:59:15;9.00;99.90
5647;DHT22;2845;48.626;9.362;2023-04-29T04:01:51;9.80;99.90
5647;DHT22;2845;48.626;9.362;2023-04-29T04:04:26;9.80;99.90
5647;DHT22;2845;48.626;9.362;2023-04-29T04:07:00;9.00;99.90
5647;DHT22;2845;48.626;9.362;2023-04-29T04:09:35;8.90;99.90
5647;DHT22;2845;48.626;9.362;2023-04-29T04:12:09;9.00;99.90
5647;DHT22;2845;48.626;9.362;2023-04-29T04:14:43;9.00;99.90
5647;DHT22;2845;48.626;9.362;2023-04-29T04:17:19;10.10;99.90
5647;DHT22;2845;48.626;9.362;2023-04-29T04:19:53;9.00;99.90
5647;DHT22;2845;48.626;9.362;2023-04-29T04:22:28;9.00;99.90
5647;DHT22;2845;48.626;9.362;2023-04-29T04:25:03;9.00;99.90
5647;DHT22;2845;48.626;9.362;2023-04-29T04:27:37;9.00;99.90
5647;DHT22;2845;48.626;9.362;2023-04-29T04:30:11;9.10;99.90
5647;DHT22;2845;48.626;9.362;2023-04-29T04:32:47;9.00;99.90
5647;DHT22;2845;48.626;9.362;2023-04-29T04:35:21;9.10;99.90
5647;DHT22;2845;48.626;9.362;2023-04-29T04:37:55;10.30;99.90
5647;DHT22;2845;48.626;9.362;2023-04-29T04:40:31;9.10;99.90
5647;DHT22;2845;48.626;9.362;2023-04-29T04:43:05;9.00;99.90
5647;DHT22;2845;48.626;9.362;2023-04-29T04:45:39;8.90;99.90
5647;DHT22;2845;48.626;9.362;2023-04-29T04:48:15;8.90;99.90
5647;DHT22;2845;48.626;9.362;2023-04-29T04:50:49;9.00;99.90
5647;DHT22;2845;48.626;9.362;2023-04-29T04:53:23;9.00;99.90
5647;DHT22;2845;48.626;9.362;2023-04-29T04:56:00;8.90;99.90
5647;DHT22;2845;48.626;9.362;2023-04-29T04:58:34;8.90;99.90
5647;DHT22;2845;48.626;9.362;2023-04-29T05:01:08;8.90;99.90
5647;DHT22;2845;48.626;9.362;2023-04-29T05:03:44;9.00;99.90
5647;DHT22;2845;48.626;9.362;2023-04-29T05:06:18;9.10;99.90
5647;DHT22;2845;48.626;9.362;2023-04-29T05:08:52;9.20;99.90
5647;DHT22;2845;48.626;9.362;2023-04-29T05:11:26;9.20;99.90
5647;DHT22;2845;48.626;9.362;2023-04-29T05:14:01;9.30;99.90
5647;DHT22;2845;48.626;9.362;2023-04-29T05:16:35;9.40;99.90
5647;DHT22;2845;48.626;9.362;2023-04-29T05:19:11;9.50;99.90
5647;DHT22;2845;48.626;9.362;2023-04-29T05:21:45;9.50;99.90
5647;DHT22;2845;48.626;9.362;2023-04-29T05:24:19;9.50;99.90
5647;DHT22;2845;48.626;9.362;2023-04-29T05:26:53;9.60;99.90
5647;DHT22;2845;48.626;9.362;2023-04-29T05:29:27;10.10;99.90
5647;DHT22;2845;48.626;9.362;2023-04-29T05:32:02;9.70;99.90
5647;DHT22;2845;48.626;9.362;2023-04-29T05:34:37;9.70;99.90
5647;DHT22;2845;48.626;9.362;2023-04-29T05:37:12;9.70;99.90
5647;DHT22;2845;48.626;9.362;2023-04-29T05:39:46;9.90;99.90
5647;DHT22;2845;48.626;9.362;2023-04-29T05:42:20;10.00;99.90
5647;DHT22;2845;48.626;9.362;2023-04-29T05:44:55;10.10;99.90
5647;DHT22;2845;48.626;9.362;2023-04-29T05:47:29;11.80;99.90
5647;DHT22;2845;48.626;9.362;2023-04-29T05:50:06;10.40;99.90
5647;DHT22;2845;48.626;9.362;2023-04-29T05:52:41;10.40;99.90
5647;DHT22;2845;48.626;9.362;2023-04-29T05:55:15;10.60;99.90
5647;DHT22;2845;48.626;9.362;2023-04-29T05:57:49;10.60;99.90
5647;DHT22;2845;48.626;9.362;2023-04-29T06:00:23;10.70;99.90
5647;DHT22;2845;48.626;9.362;2023-04-29T06:02:57;10.90;99.90
5647;DHT22;2845;48.626;9.362;2023-04-29T06:05:33;11.10;99.90
5647;DHT22;2845;48.626;9.362;2023-04-29T06:08:08;11.40;99.90
5647;DHT22;2845;48.626;9.362;2023-04-29T06:10:43;11.60;99.90
5647;DHT22;2845;48.626;9.362;2023-04-29T06:13:17;11.80;99.90
5647;DHT22;2845;48.626;9.362;2023-04-29T06:15:51;11.90;99.90
5647;DHT22;2845;48.626;9.362;2023-04-29T06:18:26;12.10;99.90
5647;DHT22;2845;48.626;9.362;2023-04-29T06:21:01;13.70;99.90
5647;DHT22;2845;48.626;9.362;2023-04-29T06:23:36;12.30;99.90
5647;DHT22;2845;48.626;9.362;2023-04-29T06:26:10;12.30;99.90
5647;DHT22;2845;48.626;9.362;2023-04-29T06:28:45;12.80;99.90
5647;DHT22;2845;48.626;9.362;2023-04-29T06:31:19;12.70;99.90
5647;DHT22;2845;48.626;9.362;2023-04-29T06:33:55;12.80;99.90
5647;DHT22;2845;48.626;9.362;2023-04-29T06:36:30;12.90;99.90
5647;DHT22;2845;48.626;9.362;2023-04-29T06:39:04;14.90;99.90
5647;DHT22;2845;48.626;9.362;2023-04-29T06:41:39;13.30;99.90
5647;DHT22;2845;48.626;9.362;2023-04-29T06:44:13;13.70;99.90
5647;DHT22;2845;48.626;9.362;2023-04-29T06:46:48;13.30;99.90
5647;DHT22;2845;48.626;9.362;2023-04-29T06:49:22;14.80;99.90
5647;DHT22;2845;48.626;9.362;2023-04-29T06:51:58;13.50;99.90
5647;DHT22;2845;48.626;9.362;2023-04-29T06:54:34;13.80;99.90
5647;DHT22;2845;48.626;9.362;2023-04-29T06:57:08;14.00;99.90
5647;DHT22;2845;48.626;9.362;2023-04-29T06:59:42;13.10;99.90
5647;DHT22;2845;48.626;9.362;2023-04-29T07:02:16;14.30;99.90
5647;DHT22;2845;48.626;9.362;2023-04-29T07:04:50;14.60;99.90
5647;DHT22;2845;48.626;9.362;2023-04-29T07:07:26;15.40;99.90
5647;DHT22;2845;48.626;9.362;2023-04-29T07:10:01;15.40;99.90
5647;DHT22;2845;48.626;9.362;2023-04-29T07:12:35;15.30;99.90
5647;DHT22;2845;48.626;9.362;2023-04-29T07:15:09;15.20;99.90
5647;DHT22;2845;48.626;9.362;2023-04-29T07:17:44;15.70;99.90
5647;DHT22;2845;48.626;9.362;2023-04-29T07:20:18;15.10;99.90
5647;DHT22;2845;48.626;9.362;2023-04-29T07:22:55;15.30;99.90
5647;DHT22;2845;48.626;9.362;2023-04-29T07:25:31;15.50;99.90
5647;DHT22;2845;48.626;9.362;2023-04-29T07:28:06;15.90;99.90
5647;DHT22;2845;48.626;9.362;2023-04-29T07:30:40;15.90;99.90
5647;DHT22;2845;48.626;9.362;2023-04-29T07:33:15;16.00;99.30
5647;DHT22;2845;48.626;9.362;2023-04-29T07:35:49;16.00;99.10
5647;DHT22;2845;48.626;9.362;2023-04-29T07:38:25;16.10;98.70
5647;DHT22;2845;48.626;9.362;2023-04-29T07:41:01;16.30;99.00
5647;DHT22;2845;48.626;9.362;2023-04-29T07:43:36;16.10;98.80
5647;DHT22;2845;48.626;9.362;2023-04-29T07:46:13;15.80;98.90
5647;DHT22;2845;48.626;9.362;2023-04-29T07:48:49;15.90;99.30
5647;DHT22;2845;48.626;9.362;2023-04-29T07:51:23;15.60;99.60
5647;DHT22;2845;48.626;9.362;2023-04-29T07:54:02;14.80;99.80
5647;DHT22;2845;48.626;9.362;2023-04-29T07:56:37;14.60;99.90
5647;DHT22;2845;48.626;9.362;2023-04-29T07:59:11;15.50;99.90
5647;DHT22;2845;48.626;9.362;2023-04-29T08:01:45;14.50;99.90
5647;DHT22;2845;48.626;9.362;2023-04-29T08:04:19;14.60;99.90
5647;DHT22;2845;48.626;9.362;2023-04-29T08:06:53;15.00;99.70
5647;DHT22;2845;48.626;9.362;2023-04-29T08:09:29;15.60;98.60
5647;DHT22;2845;48.626;9.362;2023-04-29T08:12:03;16.40;97.50
5647;DHT22;2845;48.626;9.362;2023-04-29T08:14:38;17.00;96.70
5647;DHT22;2845;48.626;9.362;2023-04-29T08:17:12;17.40;95.40
5647;DHT22;2845;48.626;9.362;2023-04-29T08:19:46;17.20;94.90
5647;DHT22;2845;48.626;9.362;2023-04-29T08:22:20;17.10;94.80
5647;DHT22;2845;48.626;9.362;2023-04-29T08:24:56;17.00;94.70
5647;DHT22;2845;48.626;9.362;2023-04-29T08:27:30;17.00;94.60
5647;DHT22;2845;48.626;9.362;2023-04-29T08:30:05;17.10;93.90
5647;DHT22;2845;48.626;9.362;2023-04-29T08:32:40;17.20;94.30
5647;DHT22;2845;48.626;9.362;2023-04-29T08:35:14;17.40;93.80
5647;DHT22;2845;48.626;9.362;2023-04-29T08:37:53;17.30;93.70
5647;DHT22;2845;48.626;9.362;2023-04-29T08:40:28;17.30;93.40
5647;DHT22;2845;48.626;9.362;2023-04-29T08:43:03;17.20;93.70
5647;DHT22;2845;48.626;9.362;2023-04-29T08:45:38;17.40;93.60
5647;DHT22;2845;48.626;9.362;2023-04-29T08:48:14;17.40;93.80
5647;DHT22;2845;48.626;9.362;2023-04-29T08:50:49;17.20;93.20
5647;DHT22;2845;48.626;9.362;2023-04-29T08:53:23;17.20;93.50
5647;DHT22;2845;48.626;9.362;2023-04-29T08:56:07;17.10;93.90
5647;DHT22;2845;48.626;9.362;2023-04-29T08:58:42;16.80;94.20
5647;DHT22;2845;48.626;9.362;2023-04-29T09:01:18;16.90;94.40
5647;DHT22;2845;48.626;9.362;2023-04-29T09:04:00;17.40;94.00
5647;DHT22;2845;48.626;9.362;2023-04-29T09:06:42;18.00;93.60
5647;DHT22;2845;48.626;9.362;2023-04-29T09:09:16;18.60;92.50
5647;DHT22;2845;48.626;9.362;2023-04-29T09:11:54;18.90;91.50
5647;DHT22;2845;48.626;9.362;2023-04-29T09:14:29;19.20;90.90
5647;DHT22;2845;48.626;9.362;2023-04-29T09:17:05;19.50;90.70
5647;DHT22;2845;48.626;9.362;2023-04-29T09:19:40;19.50;90.20
5647;DHT22;2845;48.626;9.362;2023-04-29T09:22:14;19.60;89.90
5647;DHT22;2845;48.626;9.362;2023-04-29T09:24:48;19.70;90.40
5647;DHT22;2845;48.626;9.362;2023-04-29T09:27:27;19.80;90.50
5647;DHT22;2845;48.626;9.362;2023-04-29T09:30:02;19.80;90.30
5647;DHT22;2845;48.626;9.362;2023-04-29T09:32:37;19.60;90.30
5647;DHT22;2845;48.626;9.362;2023-04-29T09:35:21;19.20;90.30
5647;DHT22;2845;48.626;9.362;2023-04-29T09:38:08;19.00;90.50
5647;DHT22;2845;48.626;9.362;2023-04-29T09:40:44;18.90;90.60
5647;DHT22;2845;48.626;9.362;2023-04-29T09:43:33;18.80;91.00
5647;DHT22;2845;48.626;9.362;2023-04-29T09:46:11;19.10;91.00
5647;DHT22;2845;48.626;9.362;2023-04-29T09:48:46;19.40;90.30
5647;DHT22;2845;48.626;9.362;2023-04-29T09:51:20;19.40;90.40
5647;DHT22;2845;48.626;9.362;2023-04-29T09:53:56;19.30;90.60
5647;DHT22;2845;48.626;9.362;2023-04-29T09:56:48;19.10;91.20
5647;DHT22;2845;48.626;9.362;2023-04-29T09:59:25;18.70;91.60
5647;DHT22;2845;48.626;9.362;2023-04-29T10:01:59;18.50;92.40
5647;DHT22;2845;48.626;9.362;2023-04-29T10:04:39;18.30;92.40
5647;DHT22;2845;48.626;9.362;2023-04-29T10:07:15;18.20;92.80
5647;DHT22;2845;48.626;9.362;2023-04-29T10:09:50;18.20;92.90
5647;DHT22;2845;48.626;9.362;2023-04-29T10:12:25;18.10;92.50
5647;DHT22;2845;48.626;9.362;2023-04-29T10:15:03;18.10;93.00
5647;DHT22;2845;48.626;9.362;2023-04-29T10:17:43;18.10;92.90
5647;DHT22;2845;48.626;9.362;2023-04-29T10:20:22;18.30;92.80
5647;DHT22;2845;48.626;9.362;2023-04-29T10:22:56;18.20;92.80
5647;DHT22;2845;48.626;9.362;2023-04-29T10:25:32;18.10;92.70
5647;DHT22;2845;48.626;9.362;2023-04-29T10:28:12;17.80;92.90
5647;DHT22;2845;48.626;9.362;2023-04-29T10:30:51;20.30;93.90
5647;DHT22;2845;48.626;9.362;2023-04-29T10:33:30;17.50;93.80
5647;DHT22;2845;48.626;9.362;2023-04-29T10:36:06;17.80;93.40
5647;DHT22;2845;48.626;9.362;2023-04-29T10:38:44;18.20;93.00
5647;DHT22;2845;48.626;9.362;2023-04-29T10:41:25;18.50;92.70
5647;DHT22;2845;48.626;9.362;2023-04-29T10:44:00;18.80;91.90
5647;DHT22;2845;48.626;9.362;2023-04-29T10:46:37;18.90;91.70
5647;DHT22;2845;48.626;9.362;2023-04-29T10:49:11;18.80;91.80
5647;DHT22;2845;48.626;9.362;2023-04-29T10:51:45;18.80;91.90
5647;DHT22;2845;48.626;9.362;2023-04-29T10:54:20;18.60;91.70
5647;DHT22;2845;48.626;9.362;2023-04-29T10:56:57;19.30;92.50
5647;DHT22;2845;48.626;9.362;2023-04-29T10:59:44;18.50;92.00
5647;DHT22;2845;48.626;9.362;2023-04-29T11:02:21;18.20;92.30
5647;DHT22;2845;48.626;9.362;2023-04-29T11:05:09;18.20;92.80
5647;DHT22;2845;48.626;9.362;2023-04-29T11:07:44;18.50;92.30
5647;DHT22;2845;48.626;9.362;2023-04-29T11:10:18;18.80;91.30
5647;DHT22;2845;48.626;9.362;2023-04-29T11:16:03;18.60;91.70
5647;DHT22;2845;48.626;9.362;2023-04-29T11:19:05;18.20;91.30
5647;DHT22;2845;48.626;9.362;2023-04-29T11:21:40;17.90;91.10
5647;DHT22;2845;48.626;9.362;2023-04-29T11:24:14;17.80;91.90
5647;DHT22;2845;48.626;9.362;2023-04-29T11:26:51;17.90;91.70
5647;DHT22;2845;48.626;9.362;2023-04-29T11:29:25;17.30;92.00
5647;DHT22;2845;48.626;9.362;2023-04-29T11:32:01;18.40;91.90
5647;DHT22;2845;48.626;9.362;2023-04-29T11:34:38;18.40;91.50
5647;DHT22;2845;48.626;9.362;2023-04-29T11:37:12;18.40;91.40
5647;DHT22;2845;48.626;9.362;2023-04-29T11:39:46;18.20;91.50
5647;DHT22;2845;48.626;9.362;2023-04-29T11:42:22;18.60;91.70
5647;DHT22;2845;48.626;9.362;2023-04-29T11:44:57;17.40;92.30
5647;DHT22;2845;48.626;9.362;2023-04-29T11:47:33;17.20;92.30
5647;DHT22;2845;48.626;9.362;2023-04-29T11:50:09;17.40;92.40
5647;DHT22;2845;48.626;9.362;2023-04-29T11:52:45;17.60;92.50
5647;DHT22;2845;48.626;9.362;2023-04-29T11:55:20;18.00;91.80
5647;DHT22;2845;48.626;9.362;2023-04-29T11:57:54;18.30;91.60
5647;DHT22;2845;48.626;9.362;2023-04-29T12:00:30;18.40;91.60
5647;DHT22;2845;48.626;9.362;2023-04-29T12:03:07;18.70;90.70
5647;DHT22;2845;48.626;9.362;2023-04-29T12:05:50;18.70;90.40
5647;DHT22;2845;48.626;9.362;2023-04-29T12:08:26;18.40;91.10
5647;DHT22;2845;48.626;9.362;2023-04-29T12:11:01;18.40;91.00
5647;DHT22;2845;48.626;9.362;2023-04-29T12:13:36;18.40;91.00
5647;DHT22;2845;48.626;9.362;2023-04-29T12:16:10;18.40;91.00
5647;DHT22;2845;48.626;9.362;2023-04-29T12:18:46;18.40;91.00
5647;DHT22;2845;48.626;9.362;2023-04-29T12:21:22;18.30;91.20
5647;DHT22;2845;48.626;9.362;2023-04-29T12:23:58;18.00;90.90
5647;DHT22;2845;48.626;9.362;2023-04-29T12:26:39;18.00;90.60
5647;DHT22;2845;48.626;9.362;2023-04-29T12:29:13;18.10;91.00
5647;DHT22;2845;48.626;9.362;2023-04-29T12:31:47;18.20;90.90
5647;DHT22;2845;48.626;9.362;2023-04-29T12:34:28;18.30;90.60
5647;DHT22;2845;48.626;9.362;2023-04-29T12:37:04;18.30;91.00
5647;DHT22;2845;48.626;9.362;2023-04-29T12:39:38;18.40;90.90
5647;DHT22;2845;48.626;9.362;2023-04-29T12:42:15;18.50;90.10
5647;DHT22;2845;48.626;9.362;2023-04-29T12:44:49;18.60;90.50
5647;DHT22;2845;48.626;9.362;2023-04-29T12:47:31;18.70;90.00
5647;DHT22;2845;48.626;9.362;2023-04-29T12:50:07;18.60;89.40
5647;DHT22;2845;48.626;9.362;2023-04-29T12:52:43;18.40;90.60
5647;DHT22;2845;48.626;9.362;2023-04-29T12:55:17;20.70;90.90
5647;DHT22;2845;48.626;9.362;2023-04-29T12:57:51;18.40;90.50
5647;DHT22;2845;48.626;9.362;2023-04-29T13:00:26;18.50;89.60
5647;DHT22;2845;48.626;9.362;2023-04-29T13:03:00;18.30;90.10
5647;DHT22;2845;48.626;9.362;2023-04-29T13:05:36;18.00;90.80
5647;DHT22;2845;48.626;9.362;2023-04-29T13:08:11;18.10;90.80
5647;DHT22;2845;48.626;9.362;2023-04-29T13:10:47;18.30;90.60
5647;DHT22;2845;48.626;9.362;2023-04-29T13:13:21;18.40;90.60
5647;DHT22;2845;48.626;9.362;2023-04-29T13:15:55;19.10;90.70
5647;DHT22;2845;48.626;9.362;2023-04-29T13:18:30;18.40;90.80
5647;DHT22;2845;48.626;9.362;2023-04-29T13:21:07;18.50;90.80
5647;DHT22;2845;48.626;9.362;2023-04-29T13:23:43;18.40;90.70
5647;DHT22;2845;48.626;9.362;2023-04-29T13:26:18;18.60;90.30
5647;DHT22;2845;48.626;9.362;2023-04-29T13:28:58;18.50;89.90
5647;DHT22;2845;48.626;9.362;2023-04-29T13:31:35;18.20;90.00
5647;DHT22;2845;48.626;9.362;2023-04-29T13:34:09;17.90;90.60
5647;DHT22;2845;48.626;9.362;2023-04-29T13:36:43;17.90;90.50
5647;DHT22;2845;48.626;9.362;2023-04-29T13:39:19;17.90;90.90
5647;DHT22;2845;48.626;9.362;2023-04-29T13:41:54;17.90;90.80
5647;DHT22;2845;48.626;9.362;2023-04-29T13:44:31;19.50;90.90
5647;DHT22;2845;48.626;9.362;2023-04-29T13:47:23;18.20;90.20
5647;DHT22;2845;48.626;9.362;2023-04-29T13:50:01;18.40;90.30
5647;DHT22;2845;48.626;9.362;2023-04-29T13:52:39;18.50;90.10
5647;DHT22;2845;48.626;9.362;2023-04-29T13:55:17;18.40;90.20
5647;DHT22;2845;48.626;9.362;2023-04-29T13:57:55;18.40;89.70
5647;DHT22;2845;48.626;9.362;2023-04-29T14:00:33;18.30;90.40
5647;DHT22;2845;48.626;9.362;2023-04-29T14:03:10;18.10;90.30
5647;DHT22;2845;48.626;9.362;2023-04-29T14:05:45;18.00;90.70
5647;DHT22;2845;48.626;9.362;2023-04-29T14:08:19;18.00;90.50
5647;DHT22;2845;48.626;9.362;2023-04-29T14:10:54;17.70;90.30
5647;DHT22;2845;48.626;9.362;2023-04-29T14:13:29;17.60;90.50
5647;DHT22;2845;48.626;9.362;2023-04-29T14:16:04;19.70;91.00
5647;DHT22;2845;48.626;9.362;2023-04-29T14:18:39;17.60;90.70
5647;DHT22;2845;48.626;9.362;2023-04-29T14:21:13;17.70;90.70
5647;DHT22;2845;48.626;9.362;2023-04-29T14:23:47;17.80;90.90
5647;DHT22;2845;48.626;9.362;2023-04-29T14:26:23;17.80;90.90
5647;DHT22;2845;48.626;9.362;2023-04-29T14:29:00;17.90;91.00
5647;DHT22;2845;48.626;9.362;2023-04-29T14:31:36;18.10;90.60
5647;DHT22;2845;48.626;9.362;2023-04-29T14:34:10;20.50;91.10
5647;DHT22;2845;48.626;9.362;2023-04-29T14:36:45;18.10;90.60
5647;DHT22;2845;48.626;9.362;2023-04-29T14:39:19;18.10;90.40
5647;DHT22;2845;48.626;9.362;2023-04-29T14:41:55;18.00;90.50
5647;DHT22;2845;48.626;9.362;2023-04-29T14:44:29;18.50;90.90
5647;DHT22;2845;48.626;9.362;2023-04-29T14:47:03;17.60;90.50
5647;DHT22;2845;48.626;9.362;2023-04-29T14:49:38;17.40;90.20
5647;DHT22;2845;48.626;9.362;2023-04-29T14:52:14;17.30;91.00
5647;DHT22;2845;48.626;9.362;2023-04-29T14:54:48;17.30;91.10
5647;DHT22;2845;48.626;9.362;2023-04-29T14:59:58;17.20;90.90
5647;DHT22;2845;48.626;9.362;2023-04-29T15:02:34;17.20;91.20
5647;DHT22;2845;48.626;9.362;2023-04-29T15:05:08;17.20;91.40
5647;DHT22;2845;48.626;9.362;2023-04-29T15:07:42;17.20;90.40
5647;DHT22;2845;48.626;9.362;2023-04-29T15:10:17;20.10;91.40
5647;DHT22;2845;48.626;9.362;2023-04-29T15:12:52;17.00;91.00
5647;DHT22;2845;48.626;9.362;2023-04-29T15:15:27;17.00;91.10
5647;DHT22;2845;48.626;9.362;2023-04-29T15:18:03;20.00;91.80
5647;DHT22;2845;48.626;9.362;2023-04-29T15:20:40;17.00;91.00
5647;DHT22;2845;48.626;9.362;2023-04-29T15:23:15;17.00;91.50
5647;DHT22;2845;48.626;9.362;2023-04-29T15:25:49;16.90;91.40
5647;DHT22;2845;48.626;9.362;2023-04-29T15:28:25;19.00;92.00
5647;DHT22;2845;48.626;9.362;2023-04-29T15:30:59;17.40;91.60
5647;DHT22;2845;48.626;9.362;2023-04-29T15:33:36;16.80;91.50
5647;DHT22;2845;48.626;9.362;2023-04-29T15:36:10;17.00;91.80
5647;DHT22;2845;48.626;9.362;2023-04-29T15:38:44;16.70;91.40
5647;DHT22;2845;48.626;9.362;2023-04-29T15:41:18;16.80;91.50
5647;DHT22;2845;48.626;9.362;2023-04-29T15:43:55;19.60;92.20
5647;DHT22;2845;48.626;9.362;2023-04-29T15:46:30;16.40;91.60
5647;DHT22;2845;48.626;9.362;2023-04-29T15:49:04;16.40;91.90
5647;DHT22;2845;48.626;9.362;2023-04-29T15:51:40;16.50;91.70
5647;DHT22;2845;48.626;9.362;2023-04-29T15:54:14;16.50;91.70
5647;DHT22;2845;48.626;9.362;2023-04-29T15:56:48;16.30;91.80
5647;DHT22;2845;48.626;9.362;2023-04-29T15:59:24;17.70;92.10
5647;DHT22;2845;48.626;9.362;2023-04-29T16:01:58;16.60;91.80
5647;DHT22;2845;48.626;9.362;2023-04-29T16:04:32;16.60;91.40
5647;DHT22;2845;48.626;9.362;2023-04-29T16:07:08;20.30;92.40
5647;DHT22;2845;48.626;9.362;2023-04-29T16:09:42;16.50;91.70
5647;DHT22;2845;48.626;9.362;2023-04-29T16:12:17;16.40;91.50
5647;DHT22;2845;48.626;9.362;2023-04-29T16:14:53;16.30;91.70
5647;DHT22;2845;48.626;9.362;2023-04-29T16:17:27;16.10;91.60
5647;DHT22;2845;48.626;9.362;2023-04-29T16:20:01;16.20;92.00
5647;DHT22;2845;48.626;9.362;2023-04-29T16:22:37;16.00;92.10
5647;DHT22;2845;48.626;9.362;2023-04-29T16:25:11;16.00;92.00
5647;DHT22;2845;48.626;9.362;2023-04-29T16:27:45;16.00;92.10
5647;DHT22;2845;48.626;9.362;2023-04-29T16:30:21;15.90;92.30
5647;DHT22;2845;48.626;9.362;2023-04-29T16:32:55;15.90;92.40
5647;DHT22;2845;48.626;9.362;2023-04-29T16:35:29;15.80;92.70
5647;DHT22;2845;48.626;9.362;2023-04-29T16:38:03;15.80;92.80
5647;DHT22;2845;48.626;9.362;2023-04-29T16:40:39;15.80;92.70
5647;DHT22;2845;48.626;9.362;2023-04-29T16:43:13;19.60;93.60
5647;DHT22;2845;48.626;9.362;2023-04-29T16:45:49;15.80;92.90
5647;DHT22;2845;48.626;9.362;2023-04-29T16:48:23;16.20;93.00
5647;DHT22;2845;48.626;9.362;2023-04-29T16:50:58;15.70;92.90
5647;DHT22;2845;48.626;9.362;2023-04-29T16:53:33;14.80;92.30
5647;DHT22;2845;48.626;9.362;2023-04-29T16:56:07;15.50;92.70
5647;DHT22;2845;48.626;9.362;2023-04-29T16:58:42;15.40;93.10
5647;DHT22;2845;48.626;9.362;2023-04-29T17:01:18;15.30;92.80
5647;DHT22;2845;48.626;9.362;2023-04-29T17:03:52;15.20;93.00
5647;DHT22;2845;48.626;9.362;2023-04-29T17:06:26;15.50;93.30